»·PEaware :: SWA76 KSAN-KPHX

SWA76 :: KSAN-KPHX

FLIGHT INFORMATION

Flight Status: Arrived
Operator:
Southwest Airlines
More flights by this operator :: More flights under this callsign
Pilot: Adam H. (10711)
Aircraft: BOEING 737-900
(B739)
More flights by this aircraft type
Origin: KSAN San Diego Intl-Lindbergh
United States
Destination: KPHX Phoenix Sky Harbor Intl
United States
More flights between these airports :: More routes between these airports
Route: ZZOOO2 IPL J18 BZA HOGGZ HYDRR1
File this flight plan on PilotEdge
Remarks:
Altitude:
(Current/Filed)
25,000ft
Speed:
(Current/Filed)
410kts
Departed: 10-May-18 01:05 PM
Arrived: 10-May-18 01:57 PM
Distance/Time
Traveled:
264nm/0:52
Distance/Time
To Go:
Arrived

Flight Plot

Page will automatically refresh every two minutes.

Flight plan parsing failed; only flown route is shown


Map Options




Map Legend


Flown Route
Filed Route
Departure Airport
Arrival Airport
Navaid (VOR, NDB)
Fix

Horizontal Profiles

Position Reports

Time Latitude Longitude Heading Altitude Ground
Speed
10-May-18 12:36 32.734280 -117.201759 182 17ft 0kts
10-May-18 12:37 32.734280 -117.201759 182 17ft 0kts
10-May-18 12:38 32.734280 -117.201759 182 17ft 0kts
10-May-18 12:39 32.734280 -117.201759 182 17ft 0kts
10-May-18 12:40 32.734280 -117.201759 182 17ft 0kts
10-May-18 12:41 32.734280 -117.201759 182 17ft 0kts
10-May-18 12:42 32.734280 -117.201759 182 17ft 0kts
10-May-18 12:43 32.734280 -117.201759 182 17ft 0kts
10-May-18 12:44 32.734280 -117.201759 182 17ft 0kts
10-May-18 12:45 32.734280 -117.201759 182 17ft 0kts
10-May-18 12:46 32.734280 -117.201759 182 17ft 0kts
10-May-18 12:47 32.734280 -117.201759 182 17ft 0kts
10-May-18 12:48 32.734280 -117.201759 182 17ft 0kts
10-May-18 12:49 32.734280 -117.201759 182 17ft 0kts
10-May-18 12:50 32.734280 -117.201759 182 17ft 0kts
10-May-18 12:51 32.734306 -117.201759 181 17ft 0kts
10-May-18 12:52 32.734955 -117.201739 181 17ft 0kts
10-May-18 12:53 32.734955 -117.201739 181 17ft 0kts
10-May-18 12:54 32.734955 -117.201739 181 17ft 0kts
10-May-18 12:55 32.734955 -117.201739 181 17ft 0kts
10-May-18 12:56 32.734954 -117.201739 181 17ft 0kts
10-May-18 12:57 32.734929 -117.201942 21 17ft 0kts
10-May-18 12:58 32.734675 -117.198568 106 17ft 18kts
10-May-18 12:59 32.732891 -117.191179 106 20ft 24kts
10-May-18 13:00 32.730847 -117.182702 105 17ft 28kts
10-May-18 13:01 32.729527 -117.177244 104 22ft 0kts
10-May-18 13:02 32.729509 -117.177162 104 22ft 2kts
10-May-18 13:03 32.729493 -117.177073 99 22ft 0kts
10-May-18 13:04 32.729483 -117.176842 85 22ft 8kts
10-May-18 13:05 32.732884 -117.186967 285 20ft 137kts
10-May-18 13:06 32.744565 -117.247478 270 1650ft 203kts
10-May-18 13:07 32.724850 -117.301011 197 4684ft 222kts
10-May-18 13:08 32.666431 -117.277870 114 6819ft 264kts
10-May-18 13:09 32.631418 -117.200355 123 8818ft 276kts
10-May-18 13:10 32.625465 -117.111125 82 10896ft 295kts
10-May-18 13:11 32.625055 -117.013445 99 13179ft 302kts
10-May-18 13:12 32.611769 -116.912374 99 13998ft 323kts
10-May-18 13:13 32.628610 -116.806843 76 13991ft 328kts
10-May-18 13:14 32.641176 -116.700117 84 13992ft 327kts
10-May-18 13:15 32.651478 -116.591232 84 15518ft 348kts
10-May-18 13:16 32.662668 -116.471629 84 17572ft 383kts
10-May-18 13:17 32.674778 -116.340827 84 19626ft 411kts
10-May-18 13:18 32.687435 -116.203041 84 21627ft 432kts
10-May-18 13:19 32.700487 -116.059181 84 23633ft 445kts
10-May-18 13:20 32.713783 -115.910528 84 24797ft 469kts
10-May-18 13:21 32.727915 -115.750120 84 24796ft 504kts
10-May-18 13:22 32.742506 -115.582316 84 24789ft 516kts
10-May-18 13:23 32.752357 -115.412706 88 24784ft 514kts
10-May-18 13:24 32.755995 -115.242964 89 24779ft 515kts
10-May-18 13:25 32.759765 -115.073313 89 24796ft 515kts
10-May-18 13:26 32.763297 -114.903292 89 24817ft 515kts
10-May-18 13:27 32.766461 -114.733436 89 24819ft 515kts
10-May-18 13:28 32.769545 -114.563170 90 24824ft 515kts
10-May-18 13:29 32.771681 -114.393653 89 24828ft 515kts
10-May-18 13:30 32.773691 -114.223252 90 24825ft 515kts
10-May-18 13:31 32.775975 -114.053433 86 24822ft 516kts
10-May-18 13:32 32.794187 -113.885317 83 24811ft 495kts
10-May-18 13:33 32.810785 -113.734936 82 24826ft 444kts
10-May-18 13:34 32.869961 -113.611605 46 24068ft 430kts
10-May-18 13:35 32.949439 -113.506756 46 23087ft 424kts
10-May-18 13:36 33.027155 -113.402619 47 22002ft 417kts
10-May-18 13:37 33.104769 -113.298154 48 21329ft 420kts
10-May-18 13:38 33.180061 -113.196510 48 19788ft 400kts
10-May-18 13:39 33.252577 -113.097956 51 18268ft 391kts
10-May-18 13:40 33.276232 -112.976380 90 17722ft 383kts
10-May-18 13:41 33.279389 -112.853071 90 16409ft 365kts
10-May-18 13:42 33.291337 -112.735245 80 15098ft 351kts
10-May-18 13:43 33.307514 -112.622708 82 13792ft 338kts
10-May-18 13:44 33.318416 -112.512907 86 12491ft 328kts
10-May-18 13:45 33.327064 -112.406259 86 11202ft 320kts
10-May-18 13:46 33.335576 -112.301415 86 10110ft 316kts
10-May-18 13:47 33.343803 -112.197992 86 9027ft 306kts
10-May-18 13:48 33.348993 -112.095849 91 8681ft 309kts
10-May-18 13:49 33.349821 -111.994067 91 7387ft 305kts
10-May-18 13:50 33.350794 -111.899070 91 6044ft 262kts
10-May-18 13:51 33.352083 -111.817150 91 4611ft 239kts
10-May-18 13:52 33.396169 -111.782633 333 3703ft 242kts
10-May-18 13:53 33.432422 -111.837271 271 3051ft 201kts
10-May-18 13:54 33.428931 -111.900358 266 2776ft 198kts
10-May-18 13:55 33.428819 -111.962320 267 1791ft 168kts
10-May-18 13:56 33.428775 -112.014885 269 1120ft 104kts
10-May-18 13:57 33.429595 -112.021776 31 1116ft 10kts
10-May-18 13:58 33.429922 -112.013396 91 1123ft 26kts
10-May-18 13:59 33.429951 -112.007187 91 1123ft 22kts
10-May-18 14:00 33.431852 -112.006260 4 1126ft 1kts

Navigation Log

Ident Type
Flight plan parsing failed, navigation log unavailable